sensor_id;sensor_type;location;lat;lon;timestamp;P1;durP1;ratioP1;P2;durP2;ratioP2
76131;SDS011;64877;50.994;13.650;2023-08-24T00:01:12;4.55;;;2.25;;
76131;SDS011;64877;50.994;13.650;2023-08-24T00:03:38;5.57;;;2.28;;
76131;SDS011;64877;50.994;13.650;2023-08-24T00:06:04;3.63;;;2.30;;
76131;SDS011;64877;50.994;13.650;2023-08-24T00:08:31;4.30;;;2.85;;
76131;SDS011;64877;50.994;13.650;2023-08-24T00:10:56;4.25;;;2.92;;
76131;SDS011;64877;50.994;13.650;2023-08-24T00:13:22;5.85;;;2.95;;
76131;SDS011;64877;50.994;13.650;2023-08-24T00:15:47;4.60;;;2.55;;
76131;SDS011;64877;50.994;13.650;2023-08-24T00:18:12;6.00;;;2.47;;
76131;SDS011;64877;50.994;13.650;2023-08-24T00:20:38;3.67;;;2.60;;
76131;SDS011;64877;50.994;13.650;2023-08-24T00:23:03;6.82;;;2.83;;
76131;SDS011;64877;50.994;13.650;2023-08-24T00:25:29;3.55;;;2.40;;
76131;SDS011;64877;50.994;13.650;2023-08-24T00:27:55;5.68;;;3.05;;
76131;SDS011;64877;50.994;13.650;2023-08-24T00:30:21;4.88;;;2.00;;
76131;SDS011;64877;50.994;13.650;2023-08-24T00:32:46;5.53;;;2.58;;
76131;SDS011;64877;50.994;13.650;2023-08-24T00:35:12;5.53;;;2.63;;
76131;SDS011;64877;50.994;13.650;2023-08-24T00:37:38;8.10;;;2.60;;
76131;SDS011;64877;50.994;13.650;2023-08-24T00:40:04;3.72;;;2.70;;
76131;SDS011;64877;50.994;13.650;2023-08-24T00:42:41;6.50;;;2.50;;
76131;SDS011;64877;50.994;13.650;2023-08-24T00:45:09;4.07;;;2.63;;
76131;SDS011;64877;50.994;13.650;2023-08-24T00:47:37;3.80;;;2.53;;
76131;SDS011;64877;50.994;13.650;2023-08-24T00:50:05;6.05;;;2.75;;
76131;SDS011;64877;50.994;13.650;2023-08-24T00:52:35;5.18;;;2.78;;
76131;SDS011;64877;50.994;13.650;2023-08-24T00:55:04;6.47;;;2.70;;
76131;SDS011;64877;50.994;13.650;2023-08-24T00:57:30;5.47;;;2.90;;
76131;SDS011;64877;50.994;13.650;2023-08-24T00:59:59;5.47;;;2.72;;
76131;SDS011;64877;50.994;13.650;2023-08-24T01:02:27;4.15;;;2.92;;
76131;SDS011;64877;50.994;13.650;2023-08-24T01:04:53;5.18;;;2.38;;
76131;SDS011;64877;50.994;13.650;2023-08-24T01:07:18;3.25;;;2.40;;
76131;SDS011;64877;50.994;13.650;2023-08-24T01:09:44;5.22;;;2.30;;
76131;SDS011;64877;50.994;13.650;2023-08-24T01:12:15;6.63;;;2.47;;
76131;SDS011;64877;50.994;13.650;2023-08-24T01:17:26;8.25;;;3.22;;
76131;SDS011;64877;50.994;13.650;2023-08-24T01:19:54;3.05;;;2.45;;
76131;SDS011;64877;50.994;13.650;2023-08-24T01:27:51;6.30;;;2.80;;
76131;SDS011;64877;50.994;13.650;2023-08-24T01:30:17;7.43;;;2.80;;
76131;SDS011;64877;50.994;13.650;2023-08-24T01:35:10;5.25;;;2.80;;
76131;SDS011;64877;50.994;13.650;2023-08-24T01:37:36;5.18;;;2.60;;
76131;SDS011;64877;50.994;13.650;2023-08-24T01:40:06;4.68;;;2.38;;
76131;SDS011;64877;50.994;13.650;2023-08-24T01:45:37;5.22;;;2.63;;
76131;SDS011;64877;50.994;13.650;2023-08-24T01:48:06;7.05;;;3.20;;
76131;SDS011;64877;50.994;13.650;2023-08-24T01:50:34;4.78;;;2.92;;
76131;SDS011;64877;50.994;13.650;2023-08-24T01:53:01;5.22;;;3.17;;
76131;SDS011;64877;50.994;13.650;2023-08-24T01:55:27;6.00;;;3.05;;
76131;SDS011;64877;50.994;13.650;2023-08-24T01:57:55;5.55;;;3.17;;
76131;SDS011;64877;50.994;13.650;2023-08-24T02:00:21;5.55;;;3.20;;
76131;SDS011;64877;50.994;13.650;2023-08-24T02:02:47;16.08;;;3.50;;
76131;SDS011;64877;50.994;13.650;2023-08-24T02:05:12;8.48;;;2.95;;
76131;SDS011;64877;50.994;13.650;2023-08-24T02:07:38;10.32;;;3.17;;
76131;SDS011;64877;50.994;13.650;2023-08-24T02:10:05;4.40;;;2.83;;
76131;SDS011;64877;50.994;13.650;2023-08-24T02:12:31;6.05;;;3.15;;
76131;SDS011;64877;50.994;13.650;2023-08-24T02:14:56;8.88;;;3.45;;
76131;SDS011;64877;50.994;13.650;2023-08-24T02:17:22;8.80;;;3.47;;
76131;SDS011;64877;50.994;13.650;2023-08-24T02:19:47;6.53;;;2.83;;
76131;SDS011;64877;50.994;13.650;2023-08-24T02:22:13;7.65;;;3.33;;
76131;SDS011;64877;50.994;13.650;2023-08-24T02:24:38;7.82;;;3.17;;
76131;SDS011;64877;50.994;13.650;2023-08-24T02:27:04;4.97;;;2.97;;
76131;SDS011;64877;50.994;13.650;2023-08-24T02:29:30;7.28;;;3.85;;
76131;SDS011;64877;50.994;13.650;2023-08-24T02:31:55;4.85;;;3.00;;
76131;SDS011;64877;50.994;13.650;2023-08-24T02:34:20;6.82;;;2.80;;
76131;SDS011;64877;50.994;13.650;2023-08-24T02:36:46;5.45;;;3.40;;
76131;SDS011;64877;50.994;13.650;2023-08-24T02:39:11;6.63;;;3.53;;
76131;SDS011;64877;50.994;13.650;2023-08-24T02:41:37;4.13;;;2.92;;
76131;SDS011;64877;50.994;13.650;2023-08-24T02:44:03;4.55;;;3.10;;
76131;SDS011;64877;50.994;13.650;2023-08-24T02:46:28;6.50;;;3.42;;
76131;SDS011;64877;50.994;13.650;2023-08-24T02:48:54;10.63;;;3.75;;
76131;SDS011;64877;50.994;13.650;2023-08-24T02:51:23;4.43;;;3.10;;
76131;SDS011;64877;50.994;13.650;2023-08-24T02:53:49;6.80;;;3.33;;
76131;SDS011;64877;50.994;13.650;2023-08-24T02:56:14;4.18;;;2.83;;
76131;SDS011;64877;50.994;13.650;2023-08-24T02:58:40;4.95;;;3.08;;
76131;SDS011;64877;50.994;13.650;2023-08-24T03:01:06;7.65;;;3.25;;
76131;SDS011;64877;50.994;13.650;2023-08-24T03:03:35;7.47;;;3.42;;
76131;SDS011;64877;50.994;13.650;2023-08-24T03:06:02;4.05;;;2.72;;
76131;SDS011;64877;50.994;13.650;2023-08-24T03:08:29;3.45;;;2.78;;
76131;SDS011;64877;50.994;13.650;2023-08-24T03:10:56;5.07;;;3.03;;
76131;SDS011;64877;50.994;13.650;2023-08-24T03:13:21;4.70;;;3.20;;
76131;SDS011;64877;50.994;13.650;2023-08-24T03:15:47;4.35;;;3.05;;
76131;SDS011;64877;50.994;13.650;2023-08-24T03:18:13;7.25;;;4.55;;
76131;SDS011;64877;50.994;13.650;2023-08-24T03:20:39;4.90;;;3.17;;
76131;SDS011;64877;50.994;13.650;2023-08-24T03:23:05;6.68;;;3.05;;
76131;SDS011;64877;50.994;13.650;2023-08-24T03:25:32;7.25;;;3.72;;
76131;SDS011;64877;50.994;13.650;2023-08-24T03:28:01;5.85;;;3.50;;
76131;SDS011;64877;50.994;13.650;2023-08-24T03:30:27;6.40;;;3.10;;
76131;SDS011;64877;50.994;13.650;2023-08-24T03:32:52;5.30;;;3.17;;
76131;SDS011;64877;50.994;13.650;2023-08-24T03:35:18;4.63;;;2.92;;
76131;SDS011;64877;50.994;13.650;2023-08-24T03:37:43;7.03;;;3.17;;
76131;SDS011;64877;50.994;13.650;2023-08-24T03:40:09;7.57;;;3.50;;
76131;SDS011;64877;50.994;13.650;2023-08-24T03:42:34;4.55;;;2.85;;
76131;SDS011;64877;50.994;13.650;2023-08-24T03:45:00;4.03;;;3.25;;
76131;SDS011;64877;50.994;13.650;2023-08-24T03:47:25;6.50;;;3.60;;
76131;SDS011;64877;50.994;13.650;2023-08-24T03:49:51;4.85;;;3.17;;
76131;SDS011;64877;50.994;13.650;2023-08-24T03:52:16;6.28;;;3.65;;
76131;SDS011;64877;50.994;13.650;2023-08-24T03:54:42;5.95;;;3.65;;
76131;SDS011;64877;50.994;13.650;2023-08-24T03:57:07;6.20;;;3.90;;
76131;SDS011;64877;50.994;13.650;2023-08-24T03:59:34;6.05;;;4.13;;
76131;SDS011;64877;50.994;13.650;2023-08-24T04:02:00;4.68;;;2.88;;
76131;SDS011;64877;50.994;13.650;2023-08-24T04:04:28;4.15;;;3.10;;
76131;SDS011;64877;50.994;13.650;2023-08-24T04:06:55;4.50;;;3.22;;
76131;SDS011;64877;50.994;13.650;2023-08-24T04:09:21;3.95;;;3.15;;
76131;SDS011;64877;50.994;13.650;2023-08-24T04:11:46;6.47;;;3.45;;
76131;SDS011;64877;50.994;13.650;2023-08-24T04:16:40;4.90;;;3.35;;
76131;SDS011;64877;50.994;13.650;2023-08-24T04:19:07;5.45;;;3.10;;
76131;SDS011;64877;50.994;13.650;2023-08-24T04:21:32;8.23;;;3.35;;
76131;SDS011;64877;50.994;13.650;2023-08-24T04:23:58;4.57;;;3.42;;
76131;SDS011;64877;50.994;13.650;2023-08-24T04:26:24;5.32;;;3.65;;
76131;SDS011;64877;50.994;13.650;2023-08-24T04:28:49;8.23;;;3.75;;
76131;SDS011;64877;50.994;13.650;2023-08-24T04:31:15;7.05;;;3.65;;
76131;SDS011;64877;50.994;13.650;2023-08-24T04:33:40;4.53;;;2.95;;
76131;SDS011;64877;50.994;13.650;2023-08-24T04:36:06;5.55;;;3.65;;
76131;SDS011;64877;50.994;13.650;2023-08-24T04:38:32;5.22;;;3.00;;
76131;SDS011;64877;50.994;13.650;2023-08-24T04:40:57;5.00;;;3.00;;
76131;SDS011;64877;50.994;13.650;2023-08-24T04:43:23;7.30;;;3.78;;
76131;SDS011;64877;50.994;13.650;2023-08-24T04:45:50;7.07;;;3.50;;
76131;SDS011;64877;50.994;13.650;2023-08-24T04:48:22;7.30;;;3.70;;
76131;SDS011;64877;50.994;13.650;2023-08-24T04:50:48;5.53;;;3.45;;
76131;SDS011;64877;50.994;13.650;2023-08-24T04:53:15;6.88;;;3.78;;
76131;SDS011;64877;50.994;13.650;2023-08-24T04:55:43;5.43;;;3.42;;
76131;SDS011;64877;50.994;13.650;2023-08-24T04:58:09;4.57;;;3.40;;
76131;SDS011;64877;50.994;13.650;2023-08-24T05:00:35;4.25;;;3.28;;
76131;SDS011;64877;50.994;13.650;2023-08-24T05:03:01;3.95;;;3.10;;
76131;SDS011;64877;50.994;13.650;2023-08-24T05:05:31;6.47;;;3.35;;
76131;SDS011;64877;50.994;13.650;2023-08-24T05:07:57;5.03;;;3.00;;
76131;SDS011;64877;50.994;13.650;2023-08-24T05:10:24;3.88;;;2.85;;
76131;SDS011;64877;50.994;13.650;2023-08-24T05:12:50;5.40;;;3.72;;
76131;SDS011;64877;50.994;13.650;2023-08-24T05:15:15;4.65;;;3.13;;
76131;SDS011;64877;50.994;13.650;2023-08-24T05:17:41;5.13;;;3.60;;
76131;SDS011;64877;50.994;13.650;2023-08-24T05:20:06;4.40;;;3.22;;
76131;SDS011;64877;50.994;13.650;2023-08-24T05:22:36;8.30;;;3.97;;
76131;SDS011;64877;50.994;13.650;2023-08-24T05:25:02;6.15;;;3.38;;
76131;SDS011;64877;50.994;13.650;2023-08-24T05:27:27;5.43;;;3.30;;
76131;SDS011;64877;50.994;13.650;2023-08-24T05:29:53;6.72;;;3.38;;
76131;SDS011;64877;50.994;13.650;2023-08-24T05:32:18;8.40;;;3.28;;
76131;SDS011;64877;50.994;13.650;2023-08-24T05:34:45;4.85;;;2.75;;
76131;SDS011;64877;50.994;13.650;2023-08-24T05:37:11;5.13;;;2.92;;
76131;SDS011;64877;50.994;13.650;2023-08-24T05:39:36;5.05;;;2.67;;
76131;SDS011;64877;50.994;13.650;2023-08-24T05:42:02;5.50;;;2.40;;
76131;SDS011;64877;50.994;13.650;2023-08-24T05:44:28;5.68;;;2.72;;
76131;SDS011;64877;50.994;13.650;2023-08-24T05:46:53;3.78;;;2.55;;
76131;SDS011;64877;50.994;13.650;2023-08-24T05:49:18;8.60;;;2.65;;
76131;SDS011;64877;50.994;13.650;2023-08-24T05:51:44;5.60;;;2.90;;
76131;SDS011;64877;50.994;13.650;2023-08-24T05:54:10;5.20;;;2.42;;
76131;SDS011;64877;50.994;13.650;2023-08-24T05:56:35;5.43;;;2.60;;
76131;SDS011;64877;50.994;13.650;2023-08-24T05:59:00;5.07;;;2.35;;
76131;SDS011;64877;50.994;13.650;2023-08-24T06:01:26;7.50;;;2.50;;
76131;SDS011;64877;50.994;13.650;2023-08-24T06:03:52;10.48;;;2.60;;
76131;SDS011;64877;50.994;13.650;2023-08-24T06:06:17;4.40;;;2.80;;
76131;SDS011;64877;50.994;13.650;2023-08-24T06:08:43;7.45;;;2.40;;
76131;SDS011;64877;50.994;13.650;2023-08-24T06:11:08;6.07;;;2.90;;
76131;SDS011;64877;50.994;13.650;2023-08-24T06:13:34;5.82;;;2.72;;
76131;SDS011;64877;50.994;13.650;2023-08-24T06:16:00;6.43;;;2.35;;
76131;SDS011;64877;50.994;13.650;2023-08-24T06:18:26;10.68;;;2.85;;
76131;SDS011;64877;50.994;13.650;2023-08-24T06:20:52;5.45;;;2.30;;
76131;SDS011;64877;50.994;13.650;2023-08-24T06:23:18;6.97;;;2.30;;
76131;SDS011;64877;50.994;13.650;2023-08-24T06:25:44;4.22;;;2.70;;
76131;SDS011;64877;50.994;13.650;2023-08-24T06:28:10;9.18;;;2.97;;
76131;SDS011;64877;50.994;13.650;2023-08-24T06:30:37;5.05;;;2.53;;
76131;SDS011;64877;50.994;13.650;2023-08-24T06:33:04;7.07;;;2.03;;
76131;SDS011;64877;50.994;13.650;2023-08-24T06:35:30;3.95;;;2.53;;
76131;SDS011;64877;50.994;13.650;2023-08-24T06:37:55;4.13;;;2.03;;
76131;SDS011;64877;50.994;13.650;2023-08-24T06:40:21;5.45;;;2.38;;
76131;SDS011;64877;50.994;13.650;2023-08-24T06:42:46;7.22;;;2.63;;
76131;SDS011;64877;50.994;13.650;2023-08-24T06:45:12;4.40;;;2.33;;
76131;SDS011;64877;50.994;13.650;2023-08-24T06:47:38;5.03;;;2.15;;
76131;SDS011;64877;50.994;13.650;2023-08-24T06:52:30;5.38;;;2.58;;
76131;SDS011;64877;50.994;13.650;2023-08-24T06:54:55;3.85;;;1.90;;
76131;SDS011;64877;50.994;13.650;2023-08-24T06:57:21;8.73;;;2.20;;
76131;SDS011;64877;50.994;13.650;2023-08-24T06:59:47;4.57;;;2.03;;
76131;SDS011;64877;50.994;13.650;2023-08-24T07:02:13;5.68;;;2.00;;
76131;SDS011;64877;50.994;13.650;2023-08-24T07:04:38;5.15;;;2.20;;
76131;SDS011;64877;50.994;13.650;2023-08-24T07:07:05;7.07;;;2.50;;
76131;SDS011;64877;50.994;13.650;2023-08-24T07:09:31;7.57;;;2.55;;
76131;SDS011;64877;50.994;13.650;2023-08-24T07:11:57;4.13;;;2.10;;
76131;SDS011;64877;50.994;13.650;2023-08-24T07:14:23;3.85;;;2.03;;
76131;SDS011;64877;50.994;13.650;2023-08-24T07:16:48;3.30;;;1.83;;
76131;SDS011;64877;50.994;13.650;2023-08-24T07:19:14;4.15;;;2.08;;
76131;SDS011;64877;50.994;13.650;2023-08-24T07:21:40;5.80;;;2.03;;
76131;SDS011;64877;50.994;13.650;2023-08-24T07:24:05;4.25;;;2.22;;
76131;SDS011;64877;50.994;13.650;2023-08-24T07:26:31;4.43;;;2.13;;
76131;SDS011;64877;50.994;13.650;2023-08-24T07:28:57;5.28;;;1.90;;
76131;SDS011;64877;50.994;13.650;2023-08-24T07:31:22;4.97;;;2.00;;
76131;SDS011;64877;50.994;13.650;2023-08-24T07:33:48;5.75;;;1.98;;
76131;SDS011;64877;50.994;13.650;2023-08-24T07:36:14;4.63;;;1.70;;
76131;SDS011;64877;50.994;13.650;2023-08-24T07:38:39;5.03;;;2.10;;
76131;SDS011;64877;50.994;13.650;2023-08-24T07:41:05;5.60;;;2.10;;
76131;SDS011;64877;50.994;13.650;2023-08-24T07:43:31;4.90;;;2.08;;
76131;SDS011;64877;50.994;13.650;2023-08-24T07:45:58;6.60;;;2.10;;
76131;SDS011;64877;50.994;13.650;2023-08-24T07:50:49;7.65;;;2.22;;
76131;SDS011;64877;50.994;13.650;2023-08-24T07:53:15;6.18;;;2.13;;
76131;SDS011;64877;50.994;13.650;2023-08-24T07:55:41;9.98;;;2.33;;
76131;SDS011;64877;50.994;13.650;2023-08-24T07:58:07;8.95;;;2.20;;
76131;SDS011;64877;50.994;13.650;2023-08-24T08:00:33;5.65;;;2.00;;
76131;SDS011;64877;50.994;13.650;2023-08-24T08:02:58;6.03;;;1.90;;
76131;SDS011;64877;50.994;13.650;2023-08-24T08:05:24;5.28;;;1.83;;
76131;SDS011;64877;50.994;13.650;2023-08-24T08:07:49;7.22;;;1.90;;
76131;SDS011;64877;50.994;13.650;2023-08-24T08:10:15;5.97;;;1.63;;
76131;SDS011;64877;50.994;13.650;2023-08-24T08:12:42;10.43;;;1.85;;
76131;SDS011;64877;50.994;13.650;2023-08-24T08:15:08;8.13;;;1.55;;
76131;SDS011;64877;50.994;13.650;2023-08-24T08:17:33;8.32;;;1.50;;
76131;SDS011;64877;50.994;13.650;2023-08-24T08:19:59;9.00;;;1.80;;
76131;SDS011;64877;50.994;13.650;2023-08-24T08:22:25;5.05;;;1.30;;
76131;SDS011;64877;50.994;13.650;2023-08-24T08:24:51;4.15;;;1.60;;
76131;SDS011;64877;50.994;13.650;2023-08-24T08:27:19;6.53;;;1.60;;
76131;SDS011;64877;50.994;13.650;2023-08-24T08:29:45;9.80;;;1.63;;
76131;SDS011;64877;50.994;13.650;2023-08-24T08:32:10;8.00;;;1.38;;
76131;SDS011;64877;50.994;13.650;2023-08-24T08:34:37;5.93;;;1.70;;
76131;SDS011;64877;50.994;13.650;2023-08-24T08:37:03;4.75;;;1.52;;
76131;SDS011;64877;50.994;13.650;2023-08-24T08:39:28;4.93;;;1.27;;
76131;SDS011;64877;50.994;13.650;2023-08-24T08:41:54;6.97;;;1.40;;
76131;SDS011;64877;50.994;13.650;2023-08-24T08:44:20;4.28;;;1.45;;
76131;SDS011;64877;50.994;13.650;2023-08-24T08:46:48;5.18;;;1.60;;
76131;SDS011;64877;50.994;13.650;2023-08-24T08:49:15;7.55;;;1.73;;
76131;SDS011;64877;50.994;13.650;2023-08-24T08:51:42;10.82;;;1.98;;
76131;SDS011;64877;50.994;13.650;2023-08-24T08:54:08;5.38;;;1.80;;
76131;SDS011;64877;50.994;13.650;2023-08-24T08:56:34;5.97;;;1.80;;
76131;SDS011;64877;50.994;13.650;2023-08-24T08:59:00;4.90;;;1.73;;
76131;SDS011;64877;50.994;13.650;2023-08-24T09:01:27;4.30;;;1.65;;
76131;SDS011;64877;50.994;13.650;2023-08-24T09:03:53;6.32;;;1.70;;
76131;SDS011;64877;50.994;13.650;2023-08-24T09:06:20;4.53;;;1.92;;
76131;SDS011;64877;50.994;13.650;2023-08-24T09:08:47;7.15;;;1.83;;
76131;SDS011;64877;50.994;13.650;2023-08-24T09:11:14;5.85;;;1.65;;
76131;SDS011;64877;50.994;13.650;2023-08-24T09:13:40;3.70;;;1.75;;
76131;SDS011;64877;50.994;13.650;2023-08-24T09:16:06;6.63;;;1.77;;
76131;SDS011;64877;50.994;13.650;2023-08-24T09:21:08;5.47;;;1.92;;
76131;SDS011;64877;50.994;13.650;2023-08-24T09:23:34;6.00;;;1.80;;
76131;SDS011;64877;50.994;13.650;2023-08-24T09:26:00;6.68;;;1.90;;
76131;SDS011;64877;50.994;13.650;2023-08-24T09:28:25;4.45;;;1.95;;
76131;SDS011;64877;50.994;13.650;2023-08-24T09:30:53;6.82;;;1.80;;
76131;SDS011;64877;50.994;13.650;2023-08-24T09:33:22;3.03;;;1.50;;
76131;SDS011;64877;50.994;13.650;2023-08-24T09:35:53;6.93;;;1.83;;
76131;SDS011;64877;50.994;13.650;2023-08-24T09:38:23;9.95;;;1.98;;
76131;SDS011;64877;50.994;13.650;2023-08-24T09:40:52;4.20;;;1.88;;
76131;SDS011;64877;50.994;13.650;2023-08-24T09:43:20;5.95;;;1.70;;
76131;SDS011;64877;50.994;13.650;2023-08-24T09:45:52;5.28;;;1.73;;
76131;SDS011;64877;50.994;13.650;2023-08-24T09:48:18;9.30;;;2.03;;
76131;SDS011;64877;50.994;13.650;2023-08-24T09:53:15;8.38;;;2.00;;
76131;SDS011;64877;50.994;13.650;2023-08-24T09:55:46;5.78;;;1.95;;
76131;SDS011;64877;50.994;13.650;2023-08-24T09:58:23;5.03;;;1.90;;
76131;SDS011;64877;50.994;13.650;2023-08-24T10:00:50;2.67;;;1.42;;
76131;SDS011;64877;50.994;13.650;2023-08-24T10:03:18;4.50;;;1.95;;
76131;SDS011;64877;50.994;13.650;2023-08-24T10:05:52;4.95;;;2.20;;
76131;SDS011;64877;50.994;13.650;2023-08-24T10:10:52;5.20;;;1.73;;
76131;SDS011;64877;50.994;13.650;2023-08-24T10:13:23;13.35;;;1.90;;
76131;SDS011;64877;50.994;13.650;2023-08-24T10:15:56;2.20;;;1.52;;
76131;SDS011;64877;50.994;13.650;2023-08-24T10:18:22;4.97;;;2.10;;
76131;SDS011;64877;50.994;13.650;2023-08-24T10:20:49;4.47;;;1.80;;
76131;SDS011;64877;50.994;13.650;2023-08-24T10:23:15;3.67;;;1.90;;
76131;SDS011;64877;50.994;13.650;2023-08-24T10:25:41;7.25;;;1.80;;
76131;SDS011;64877;50.994;13.650;2023-08-24T10:28:09;5.22;;;1.92;;
76131;SDS011;64877;50.994;13.650;2023-08-24T10:33:02;6.25;;;2.28;;
76131;SDS011;64877;50.994;13.650;2023-08-24T10:35:29;5.03;;;1.73;;
76131;SDS011;64877;50.994;13.650;2023-08-24T10:37:58;5.05;;;2.17;;
76131;SDS011;64877;50.994;13.650;2023-08-24T10:40:33;3.75;;;1.60;;
76131;SDS011;64877;50.994;13.650;2023-08-24T10:43:03;5.35;;;1.65;;
76131;SDS011;64877;50.994;13.650;2023-08-24T10:48:25;6.38;;;1.75;;
76131;SDS011;64877;50.994;13.650;2023-08-24T10:51:37;4.55;;;2.10;;
76131;SDS011;64877;50.994;13.650;2023-08-24T10:56:14;6.20;;;2.28;;
76131;SDS011;64877;50.994;13.650;2023-08-24T10:58:41;5.50;;;1.60;;
76131;SDS011;64877;50.994;13.650;2023-08-24T11:01:15;5.88;;;1.98;;
76131;SDS011;64877;50.994;13.650;2023-08-24T11:03:50;4.22;;;1.80;;
76131;SDS011;64877;50.994;13.650;2023-08-24T11:06:21;5.18;;;2.00;;
76131;SDS011;64877;50.994;13.650;2023-08-24T11:08:48;5.85;;;2.20;;
76131;SDS011;64877;50.994;13.650;2023-08-24T11:11:21;4.75;;;2.00;;
76131;SDS011;64877;50.994;13.650;2023-08-24T11:16:56;5.78;;;2.10;;
76131;SDS011;64877;50.994;13.650;2023-08-24T11:19:24;3.28;;;1.60;;
76131;SDS011;64877;50.994;13.650;2023-08-24T11:21:50;4.65;;;1.63;;
76131;SDS011;64877;50.994;13.650;2023-08-24T11:24:16;3.75;;;1.80;;
76131;SDS011;64877;50.994;13.650;2023-08-24T11:26:48;5.57;;;1.85;;
76131;SDS011;64877;50.994;13.650;2023-08-24T11:29:14;5.82;;;2.10;;
76131;SDS011;64877;50.994;13.650;2023-08-24T11:31:43;4.68;;;2.05;;
76131;SDS011;64877;50.994;13.650;2023-08-24T11:34:09;9.57;;;2.25;;
76131;SDS011;64877;50.994;13.650;2023-08-24T11:37:09;3.33;;;1.65;;
76131;SDS011;64877;50.994;13.650;2023-08-24T11:39:27;4.53;;;1.80;;
76131;SDS011;64877;50.994;13.650;2023-08-24T11:44:26;7.97;;;1.80;;
76131;SDS011;64877;50.994;13.650;2023-08-24T11:46:51;6.45;;;2.30;;
76131;SDS011;64877;50.994;13.650;2023-08-24T11:49:17;4.57;;;2.10;;
76131;SDS011;64877;50.994;13.650;2023-08-24T11:51:42;4.97;;;1.75;;
76131;SDS011;64877;50.994;13.650;2023-08-24T11:54:08;4.60;;;1.90;;
76131;SDS011;64877;50.994;13.650;2023-08-24T11:56:42;3.38;;;1.80;;
76131;SDS011;64877;50.994;13.650;2023-08-24T11:59:14;6.57;;;2.15;;
76131;SDS011;64877;50.994;13.650;2023-08-24T12:01:41;6.70;;;1.80;;
76131;SDS011;64877;50.994;13.650;2023-08-24T12:04:07;5.78;;;2.20;;
76131;SDS011;64877;50.994;13.650;2023-08-24T12:06:33;7.95;;;1.95;;
76131;SDS011;64877;50.994;13.650;2023-08-24T12:08:59;3.20;;;1.90;;
76131;SDS011;64877;50.994;13.650;2023-08-24T12:11:25;6.05;;;1.90;;
76131;SDS011;64877;50.994;13.650;2023-08-24T12:13:52;8.73;;;1.88;;
76131;SDS011;64877;50.994;13.650;2023-08-24T12:16:19;3.88;;;1.83;;
76131;SDS011;64877;50.994;13.650;2023-08-24T12:18:46;5.45;;;2.33;;
76131;SDS011;64877;50.994;13.650;2023-08-24T12:21:16;4.93;;;2.28;;
76131;SDS011;64877;50.994;13.650;2023-08-24T12:23:42;5.07;;;1.92;;
76131;SDS011;64877;50.994;13.650;2023-08-24T12:26:07;6.30;;;2.00;;
76131;SDS011;64877;50.994;13.650;2023-08-24T12:28:33;6.10;;;1.77;;
76131;SDS011;64877;50.994;13.650;2023-08-24T12:30:59;5.22;;;1.90;;
76131;SDS011;64877;50.994;13.650;2023-08-24T12:33:29;7.88;;;1.90;;
76131;SDS011;64877;50.994;13.650;2023-08-24T12:35:56;7.18;;;1.98;;
76131;SDS011;64877;50.994;13.650;2023-08-24T12:38:24;7.55;;;2.25;;
76131;SDS011;64877;50.994;13.650;2023-08-24T12:43:16;4.45;;;1.70;;
76131;SDS011;64877;50.994;13.650;2023-08-24T12:45:41;10.07;;;1.92;;
76131;SDS011;64877;50.994;13.650;2023-08-24T12:48:08;4.65;;;1.80;;
76131;SDS011;64877;50.994;13.650;2023-08-24T12:50:34;6.82;;;1.95;;
76131;SDS011;64877;50.994;13.650;2023-08-24T12:53:00;4.10;;;1.80;;
76131;SDS011;64877;50.994;13.650;2023-08-24T12:55:27;6.68;;;1.60;;
76131;SDS011;64877;50.994;13.650;2023-08-24T13:00:18;3.53;;;1.75;;
76131;SDS011;64877;50.994;13.650;2023-08-24T13:02:44;5.70;;;1.75;;
76131;SDS011;64877;50.994;13.650;2023-08-24T13:05:09;4.82;;;1.77;;
76131;SDS011;64877;50.994;13.650;2023-08-24T13:07:35;6.05;;;1.92;;
76131;SDS011;64877;50.994;13.650;2023-08-24T13:10:01;6.53;;;1.90;;
76131;SDS011;64877;50.994;13.650;2023-08-24T13:12:28;3.90;;;2.00;;
76131;SDS011;64877;50.994;13.650;2023-08-24T13:14:54;3.97;;;1.67;;
76131;SDS011;64877;50.994;13.650;2023-08-24T13:17:19;7.68;;;1.73;;
76131;SDS011;64877;50.994;13.650;2023-08-24T13:19:44;3.92;;;2.10;;
76131;SDS011;64877;50.994;13.650;2023-08-24T13:22:10;6.68;;;1.80;;
76131;SDS011;64877;50.994;13.650;2023-08-24T13:24:36;4.35;;;1.80;;
76131;SDS011;64877;50.994;13.650;2023-08-24T13:27:01;5.38;;;2.00;;
76131;SDS011;64877;50.994;13.650;2023-08-24T13:29:28;10.90;;;2.75;;
76131;SDS011;64877;50.994;13.650;2023-08-24T13:31:53;3.92;;;1.98;;
76131;SDS011;64877;50.994;13.650;2023-08-24T13:34:19;4.50;;;1.90;;
76131;SDS011;64877;50.994;13.650;2023-08-24T13:36:44;3.92;;;2.20;;
76131;SDS011;64877;50.994;13.650;2023-08-24T13:39:10;5.45;;;2.42;;
76131;SDS011;64877;50.994;13.650;2023-08-24T13:41:36;5.28;;;1.83;;
76131;SDS011;64877;50.994;13.650;2023-08-24T13:44:02;7.20;;;2.03;;
76131;SDS011;64877;50.994;13.650;2023-08-24T13:46:27;4.55;;;2.00;;
76131;SDS011;64877;50.994;13.650;2023-08-24T13:48:53;5.05;;;2.30;;
76131;SDS011;64877;50.994;13.650;2023-08-24T13:51:18;4.60;;;1.85;;
76131;SDS011;64877;50.994;13.650;2023-08-24T13:53:44;4.07;;;2.10;;
76131;SDS011;64877;50.994;13.650;2023-08-24T13:56:09;9.00;;;2.20;;
76131;SDS011;64877;50.994;13.650;2023-08-24T13:58:35;3.65;;;2.20;;
76131;SDS011;64877;50.994;13.650;2023-08-24T14:01:00;4.10;;;2.10;;
76131;SDS011;64877;50.994;13.650;2023-08-24T14:03:28;7.35;;;2.00;;
76131;SDS011;64877;50.994;13.650;2023-08-24T14:05:57;6.18;;;2.40;;
76131;SDS011;64877;50.994;13.650;2023-08-24T14:08:23;8.10;;;2.40;;
76131;SDS011;64877;50.994;13.650;2023-08-24T14:10:49;3.83;;;2.20;;
76131;SDS011;64877;50.994;13.650;2023-08-24T14:13:15;4.50;;;2.40;;
76131;SDS011;64877;50.994;13.650;2023-08-24T14:15:40;9.18;;;2.33;;
76131;SDS011;64877;50.994;13.650;2023-08-24T14:18:06;8.02;;;2.60;;
76131;SDS011;64877;50.994;13.650;2023-08-24T14:20:32;5.93;;;2.42;;
76131;SDS011;64877;50.994;13.650;2023-08-24T14:22:58;6.60;;;2.63;;
76131;SDS011;64877;50.994;13.650;2023-08-24T14:25:24;5.30;;;2.45;;
76131;SDS011;64877;50.994;13.650;2023-08-24T14:27:49;4.70;;;2.50;;
76131;SDS011;64877;50.994;13.650;2023-08-24T14:30:15;7.50;;;2.45;;
76131;SDS011;64877;50.994;13.650;2023-08-24T14:32:40;4.78;;;2.17;;
76131;SDS011;64877;50.994;13.650;2023-08-24T14:35:06;9.45;;;2.60;;
76131;SDS011;64877;50.994;13.650;2023-08-24T14:37:31;7.35;;;2.50;;
76131;SDS011;64877;50.994;13.650;2023-08-24T14:42:23;8.43;;;2.75;;
76131;SDS011;64877;50.994;13.650;2023-08-24T14:44:49;7.93;;;2.58;;
76131;SDS011;64877;50.994;13.650;2023-08-24T14:47:14;3.45;;;2.10;;
76131;SDS011;64877;50.994;13.650;2023-08-24T14:49:40;5.97;;;2.70;;
76131;SDS011;64877;50.994;13.650;2023-08-24T14:52:05;6.65;;;2.35;;
76131;SDS011;64877;50.994;13.650;2023-08-24T14:54:31;3.80;;;2.30;;
76131;SDS011;64877;50.994;13.650;2023-08-24T14:56:56;6.13;;;2.05;;
76131;SDS011;64877;50.994;13.650;2023-08-24T14:59:24;3.53;;;2.00;;
76131;SDS011;64877;50.994;13.650;2023-08-24T15:01:49;4.88;;;2.30;;
76131;SDS011;64877;50.994;13.650;2023-08-24T15:04:14;6.78;;;2.58;;
76131;SDS011;64877;50.994;13.650;2023-08-24T15:06:40;5.32;;;2.08;;
76131;SDS011;64877;50.994;13.650;2023-08-24T15:09:05;5.03;;;2.35;;
76131;SDS011;64877;50.994;13.650;2023-08-24T15:11:31;8.80;;;2.67;;
76131;SDS011;64877;50.994;13.650;2023-08-24T15:13:57;7.32;;;2.55;;
76131;SDS011;64877;50.994;13.650;2023-08-24T15:16:22;4.93;;;2.20;;
76131;SDS011;64877;50.994;13.650;2023-08-24T15:18:48;3.58;;;2.00;;